createdAt,value
2022-10-12T00:01:11.041Z,87.7
2022-10-12T00:07:02.547Z,87.6
2022-10-12T00:12:37.465Z,87.6
2022-10-12T00:18:12.351Z,87.6
2022-10-12T00:23:47.116Z,87.7
2022-10-12T00:29:43.137Z,87.8
2022-10-12T00:35:20.777Z,87.7
2022-10-12T00:41:03.718Z,87.8
2022-10-12T00:46:48.945Z,87.9
2022-10-12T00:52:29.191Z,87.9
2022-10-12T00:58:25.341Z,87.9
2022-10-12T01:04:00.217Z,88
2022-10-12T01:09:39.148Z,88
2022-10-12T01:15:13.881Z,88
2022-10-12T01:20:57.652Z,88.1
2022-10-12T01:26:32.585Z,88
2022-10-12T01:32:21.518Z,88.1
2022-10-12T01:37:58.251Z,88.1
2022-10-12T01:43:33.091Z,88.2
2022-10-12T01:49:08.492Z,88.2
2022-10-12T01:54:45.772Z,88.3
2022-10-12T02:00:21.010Z,88.3
2022-10-12T02:05:55.830Z,88.3
2022-10-12T02:11:34.128Z,88.4
2022-10-12T02:17:09.825Z,88.4
2022-10-12T02:23:06.844Z,88.4
2022-10-12T02:28:42.177Z,88.4
2022-10-12T02:34:18.244Z,88.3
2022-10-12T02:39:53.165Z,88.3
2022-10-12T02:45:38.000Z,88.4
2022-10-12T02:51:12.761Z,88.3
2022-10-12T02:57:26.317Z,88.3
2022-10-12T03:03:36.180Z,88.3
2022-10-12T03:09:24.021Z,88.4
2022-10-12T03:14:58.660Z,88.4
2022-10-12T03:20:33.430Z,88.5
2022-10-12T03:26:27.532Z,88.5
2022-10-12T03:32:23.363Z,88.6
2022-10-12T03:37:58.156Z,88.7
2022-10-12T03:43:37.054Z,88.7
2022-10-12T03:50:00.396Z,88.8
2022-10-12T03:55:37.583Z,88.7
2022-10-12T04:01:14.859Z,88.7
2022-10-12T04:06:51.535Z,88.8
2022-10-12T04:12:26.456Z,88.9
2022-10-12T04:18:01.481Z,88.9
2022-10-12T04:23:53.999Z,89
2022-10-12T04:29:28.882Z,88.9
2022-10-12T04:35:05.125Z,89
2022-10-12T04:40:40.078Z,89
2022-10-12T04:46:14.958Z,89
2022-10-12T04:51:57.042Z,89
2022-10-12T04:57:31.854Z,89
2022-10-12T05:03:15.516Z,88.9
2022-10-12T05:08:52.800Z,88.9
2022-10-12T05:16:06.163Z,88.9
2022-10-12T05:21:40.866Z,89
2022-10-12T05:27:39.837Z,89
2022-10-12T05:33:21.933Z,89
2022-10-12T05:39:24.787Z,89
2022-10-12T05:44:59.918Z,89.1
2022-10-12T05:50:54.843Z,89.1
2022-10-12T05:56:47.853Z,89.1
2022-10-12T06:02:30.492Z,89.1
2022-10-12T06:08:05.274Z,89.1
2022-10-12T06:13:40.276Z,89.1
2022-10-12T06:19:15.192Z,89.1
2022-10-12T06:24:50.113Z,89.2
2022-10-12T06:30:28.342Z,89.2
2022-10-12T06:36:03.455Z,89.2
2022-10-12T06:41:39.036Z,89.3
2022-10-12T06:47:19.746Z,89.4
2022-10-12T06:52:54.957Z,89.5
2022-10-12T06:58:30.864Z,89.4
2022-10-12T07:04:56.054Z,89.7
2022-10-12T07:10:34.025Z,89.7
2022-10-12T07:16:12.456Z,89.8
2022-10-12T07:22:09.296Z,89.8
2022-10-12T07:27:44.304Z,89.6
2022-10-12T07:33:36.179Z,89.4
2022-10-12T07:39:36.406Z,89.6
2022-10-12T07:45:17.786Z,89.9
2022-10-12T07:50:53.589Z,89.8
2022-10-12T07:56:28.695Z,89.6
2022-10-12T08:03:44.662Z,89.5
2022-10-12T08:09:23.030Z,89.4
2022-10-12T08:15:06.603Z,89.3
2022-10-12T08:20:55.639Z,89.2
2022-10-12T08:27:02.125Z,89
2022-10-12T08:32:36.745Z,89
2022-10-12T08:38:12.183Z,88.9
2022-10-12T08:43:56.172Z,88.7
2022-10-12T08:49:31.389Z,87.8
2022-10-12T08:55:06.354Z,84.7
2022-10-12T09:00:42.160Z,82.9
2022-10-12T09:06:18.366Z,84
2022-10-12T09:11:53.540Z,82.4
2022-10-12T09:17:28.882Z,83.8
2022-10-12T09:23:03.597Z,84.7
2022-10-12T09:28:39.069Z,86.5
2022-10-12T09:34:19.626Z,87.3
2022-10-12T09:39:54.957Z,87.1
2022-10-12T09:45:30.246Z,87.5
2022-10-12T09:51:05.176Z,86.5
2022-10-12T09:56:40.354Z,85.2
2022-10-12T10:02:15.825Z,83.9
2022-10-12T10:07:51.760Z,80.7
2022-10-12T10:13:26.758Z,78.7
2022-10-12T10:19:01.897Z,77
2022-10-12T10:24:38.825Z,74.8
2022-10-12T10:30:33.713Z,72.3
2022-10-12T10:36:19.300Z,73.5
2022-10-12T10:41:54.451Z,76.7
2022-10-12T10:47:29.353Z,80.6
2022-10-12T10:53:04.487Z,81.1
2022-10-12T10:58:39.293Z,81.8
2022-10-12T11:04:14.535Z,79.4
2022-10-12T11:09:49.915Z,77.5
2022-10-12T11:15:25.031Z,76.9
2022-10-12T11:21:19.947Z,78.8
2022-10-12T11:26:55.216Z,78.1
2022-10-12T11:32:30.524Z,72.1
2022-10-12T11:38:05.618Z,73.3
2022-10-12T11:43:40.959Z,72.7
2022-10-12T11:49:16.193Z,73.5
2022-10-12T11:54:51.092Z,74.3
2022-10-12T12:00:25.992Z,73.6
2022-10-12T12:06:00.975Z,72
2022-10-12T12:11:35.765Z,72.5
2022-10-12T12:17:11.034Z,72.5
2022-10-12T12:22:46.038Z,76.6
2022-10-12T12:28:21.782Z,76.2
2022-10-12T12:33:57.622Z,69.4
2022-10-12T12:39:37.566Z,71.8
2022-10-12T12:45:12.503Z,72
2022-10-12T12:50:47.322Z,71
2022-10-12T12:56:22.097Z,75.7
2022-10-12T13:01:57.299Z,77.8
2022-10-12T13:07:34.172Z,77.5
2022-10-12T13:13:09.862Z,79.2
2022-10-12T13:18:49.472Z,79.9
2022-10-12T13:24:24.802Z,78.5
2022-10-12T13:29:59.765Z,78.9
2022-10-12T13:35:35.374Z,74.9
2022-10-12T13:41:10.454Z,76.5
2022-10-12T13:46:45.747Z,76
2022-10-12T13:52:20.701Z,75.4
2022-10-12T13:57:55.892Z,75.9
2022-10-12T14:03:30.948Z,72.9
2022-10-12T14:09:05.912Z,72.1
2022-10-12T14:14:40.827Z,76
2022-10-12T14:20:20.814Z,72.5
2022-10-12T14:25:55.936Z,71.2
2022-10-12T14:31:31.395Z,74.4
2022-10-12T14:37:06.945Z,74
2022-10-12T14:42:42.203Z,72.7
2022-10-12T14:48:21.329Z,67.8
2022-10-12T14:53:57.473Z,69.7
2022-10-12T14:59:32.476Z,69.2
2022-10-12T15:05:07.563Z,69.7
2022-10-12T15:10:42.621Z,69
2022-10-12T15:16:17.645Z,71.6
2022-10-12T15:21:53.138Z,70.4
2022-10-12T15:27:28.295Z,70.3
2022-10-12T15:33:03.225Z,72.2
2022-10-12T15:38:38.497Z,69.3
2022-10-12T15:44:13.522Z,74.6
2022-10-12T15:49:48.469Z,74.2
2022-10-12T15:55:23.788Z,74.2
2022-10-12T16:00:59.579Z,75.3
2022-10-12T16:06:34.959Z,75.3
2022-10-12T16:12:09.821Z,76.5
2022-10-12T16:17:44.859Z,77.7
2022-10-12T16:23:19.726Z,77.9
2022-10-12T16:28:54.795Z,79.3
2022-10-12T16:34:30.393Z,79.7
2022-10-12T16:40:06.070Z,82.7
2022-10-12T16:45:41.063Z,83.4
2022-10-12T16:51:16.073Z,83.5
2022-10-12T16:56:50.744Z,84.3
2022-10-12T17:02:25.789Z,82.9
2022-10-12T17:08:15.776Z,84.2
2022-10-12T17:13:51.023Z,83.9
2022-10-12T17:19:25.799Z,84.5
2022-10-12T17:25:01.190Z,83.9
2022-10-12T17:30:35.979Z,84.3
2022-10-12T17:36:10.732Z,85.1
2022-10-12T17:41:47.453Z,84.6
2022-10-12T17:47:31.443Z,84.6
2022-10-12T17:53:06.413Z,85.2
2022-10-12T17:58:41.776Z,84.9
2022-10-12T18:04:25.418Z,85.2
2022-10-12T18:10:09.393Z,85
2022-10-12T18:15:45.193Z,85.7
2022-10-12T18:21:29.501Z,84.8
2022-10-12T18:27:11.641Z,85.6
2022-10-12T18:32:55.732Z,86.8
2022-10-12T18:38:30.582Z,87.1
2022-10-12T18:44:05.569Z,86.8
2022-10-12T18:49:41.875Z,86.5
2022-10-12T18:55:16.630Z,85.7
2022-10-12T19:00:52.995Z,86.2
2022-10-12T19:06:29.729Z,86.8
2022-10-12T19:12:05.027Z,86
2022-10-12T19:17:40.550Z,86
2022-10-12T19:23:15.598Z,86.2
2022-10-12T19:29:16.449Z,86.5
2022-10-12T19:34:51.253Z,86.2
2022-10-12T19:40:33.578Z,86
2022-10-12T19:46:08.378Z,86.2
2022-10-12T19:51:43.740Z,86.6
2022-10-12T19:57:19.958Z,87.2
2022-10-12T20:02:58.248Z,87.3
2022-10-12T20:08:33.455Z,87.5
2022-10-12T20:14:26.023Z,87.7
2022-10-12T20:20:00.981Z,87.8
2022-10-12T20:25:45.613Z,88
2022-10-12T20:31:21.794Z,87.9
2022-10-12T20:36:58.796Z,88
2022-10-12T20:42:41.655Z,88.3
2022-10-12T20:48:25.397Z,88.5
2022-10-12T20:54:02.542Z,88.7
2022-10-12T21:00:22.879Z,88.7
2022-10-12T21:05:57.537Z,88.9
2022-10-12T21:11:32.682Z,88.8
2022-10-12T21:17:07.538Z,89.2
2022-10-12T21:22:43.465Z,89.7
2022-10-12T21:28:38.529Z,89.4
2022-10-12T21:34:28.582Z,89.4
2022-10-12T21:40:11.460Z,89.4
2022-10-12T21:46:07.440Z,89.4
2022-10-12T21:51:42.848Z,88.3
2022-10-12T21:57:18.986Z,87.8
2022-10-12T22:02:53.854Z,87.6
2022-10-12T22:08:28.936Z,87.5
2022-10-12T22:14:04.522Z,87.3
2022-10-12T22:19:46.137Z,87.2
2022-10-12T22:25:21.737Z,87.1
2022-10-12T22:30:56.542Z,87
2022-10-12T22:36:31.395Z,87
2022-10-12T22:42:12.474Z,87
2022-10-12T22:48:17.576Z,86.9
2022-10-12T22:53:52.845Z,86.9
2022-10-12T22:59:27.576Z,86.8
2022-10-12T23:05:02.714Z,86.9
2022-10-12T23:10:47.444Z,86.9
2022-10-12T23:16:22.344Z,86.9
2022-10-12T23:21:57.183Z,87
2022-10-12T23:27:32.097Z,87
2022-10-12T23:33:06.847Z,87
2022-10-12T23:38:44.164Z,87
2022-10-12T23:44:24.619Z,87
2022-10-12T23:49:59.740Z,87
2022-10-12T23:55:35.483Z,87
